Terminal Aerodrome Forecast
Issued by NWS

Home | Current Version | Previous Version | Text Only | Print | Product List | Glossary On
Versions: 1 2 3 4 5 6 7 8 9 10 11 12 13 14 15 16 17 18
000
FTUS43 KICT 261120
TAFSLN
TAF
KSLN 261120Z 2612/2712 33013KT P6SM OVC008
     FM261400 35011KT P6SM OVC015
     FM261600 36012KT P6SM OVC025
     FM262200 01009KT P6SM BKN040
     FM270100 02006KT P6SM SCT150=

USA.gov is the U.S. government's official web portal to all federal, state and local government web resources and services.